sensor_id;sensor_type;location;lat;lon;timestamp;P1;durP1;ratioP1;P2;durP2;ratioP2
20056;SDS011;10189;49.546;7.906;2024-01-10T00:02:17;26.80;;;13.70;;
20056;SDS011;10189;49.546;7.906;2024-01-10T00:04:43;24.70;;;13.70;;
20056;SDS011;10189;49.546;7.906;2024-01-10T00:07:09;28.38;;;14.63;;
20056;SDS011;10189;49.546;7.906;2024-01-10T00:09:34;28.45;;;15.57;;
20056;SDS011;10189;49.546;7.906;2024-01-10T00:12:00;29.77;;;18.10;;
20056;SDS011;10189;49.546;7.906;2024-01-10T00:14:26;25.73;;;13.65;;
20056;SDS011;10189;49.546;7.906;2024-01-10T00:16:52;25.98;;;14.00;;
20056;SDS011;10189;49.546;7.906;2024-01-10T00:19:18;27.05;;;13.15;;
20056;SDS011;10189;49.546;7.906;2024-01-10T00:21:43;24.10;;;13.05;;
20056;SDS011;10189;49.546;7.906;2024-01-10T00:24:09;25.55;;;13.25;;
20056;SDS011;10189;49.546;7.906;2024-01-10T00:26:35;26.90;;;14.70;;
20056;SDS011;10189;49.546;7.906;2024-01-10T00:29:01;28.00;;;14.43;;
20056;SDS011;10189;49.546;7.906;2024-01-10T00:31:27;32.08;;;16.27;;
20056;SDS011;10189;49.546;7.906;2024-01-10T00:33:53;27.17;;;14.20;;
20056;SDS011;10189;49.546;7.906;2024-01-10T00:36:18;27.40;;;13.57;;
20056;SDS011;10189;49.546;7.906;2024-01-10T00:38:44;27.42;;;13.82;;
20056;SDS011;10189;49.546;7.906;2024-01-10T00:41:10;26.15;;;12.75;;
20056;SDS011;10189;49.546;7.906;2024-01-10T00:43:37;24.90;;;13.43;;
20056;SDS011;10189;49.546;7.906;2024-01-10T00:46:03;29.38;;;13.73;;
20056;SDS011;10189;49.546;7.906;2024-01-10T00:48:29;24.65;;;13.80;;
20056;SDS011;10189;49.546;7.906;2024-01-10T00:50:54;27.42;;;13.65;;
20056;SDS011;10189;49.546;7.906;2024-01-10T00:53:20;28.00;;;13.70;;
20056;SDS011;10189;49.546;7.906;2024-01-10T00:55:46;26.63;;;14.23;;
20056;SDS011;10189;49.546;7.906;2024-01-10T00:58:13;29.38;;;14.48;;
20056;SDS011;10189;49.546;7.906;2024-01-10T01:00:38;26.52;;;14.10;;
20056;SDS011;10189;49.546;7.906;2024-01-10T01:03:05;28.40;;;15.00;;
20056;SDS011;10189;49.546;7.906;2024-01-10T01:05:32;29.05;;;14.50;;
20056;SDS011;10189;49.546;7.906;2024-01-10T01:07:58;27.20;;;13.25;;
20056;SDS011;10189;49.546;7.906;2024-01-10T01:10:23;32.08;;;15.35;;
20056;SDS011;10189;49.546;7.906;2024-01-10T01:12:49;28.90;;;14.85;;
20056;SDS011;10189;49.546;7.906;2024-01-10T01:15:15;26.17;;;13.98;;
20056;SDS011;10189;49.546;7.906;2024-01-10T01:17:41;28.75;;;14.32;;
20056;SDS011;10189;49.546;7.906;2024-01-10T01:20:07;27.55;;;14.43;;
20056;SDS011;10189;49.546;7.906;2024-01-10T01:22:33;28.80;;;15.05;;
20056;SDS011;10189;49.546;7.906;2024-01-10T01:24:59;28.25;;;15.02;;
20056;SDS011;10189;49.546;7.906;2024-01-10T01:27:25;31.15;;;15.77;;
20056;SDS011;10189;49.546;7.906;2024-01-10T01:29:51;28.15;;;14.70;;
20056;SDS011;10189;49.546;7.906;2024-01-10T01:32:17;27.17;;;14.25;;
20056;SDS011;10189;49.546;7.906;2024-01-10T01:34:43;28.25;;;14.50;;
20056;SDS011;10189;49.546;7.906;2024-01-10T01:37:09;30.75;;;14.70;;
20056;SDS011;10189;49.546;7.906;2024-01-10T01:39:34;30.00;;;15.63;;
20056;SDS011;10189;49.546;7.906;2024-01-10T01:42:00;28.35;;;15.02;;
20056;SDS011;10189;49.546;7.906;2024-01-10T01:44:27;30.42;;;15.13;;
20056;SDS011;10189;49.546;7.906;2024-01-10T01:46:53;31.08;;;16.33;;
20056;SDS011;10189;49.546;7.906;2024-01-10T01:49:19;31.55;;;14.75;;
20056;SDS011;10189;49.546;7.906;2024-01-10T01:51:45;32.47;;;15.00;;
20056;SDS011;10189;49.546;7.906;2024-01-10T01:54:11;29.02;;;14.10;;
20056;SDS011;10189;49.546;7.906;2024-01-10T01:56:38;27.45;;;14.95;;
20056;SDS011;10189;49.546;7.906;2024-01-10T01:59:06;31.75;;;15.25;;
20056;SDS011;10189;49.546;7.906;2024-01-10T02:01:33;26.75;;;14.70;;
20056;SDS011;10189;49.546;7.906;2024-01-10T02:04:03;31.83;;;16.42;;
20056;SDS011;10189;49.546;7.906;2024-01-10T02:06:29;27.42;;;15.05;;
20056;SDS011;10189;49.546;7.906;2024-01-10T02:08:55;26.75;;;14.95;;
20056;SDS011;10189;49.546;7.906;2024-01-10T02:11:25;30.90;;;15.13;;
20056;SDS011;10189;49.546;7.906;2024-01-10T02:13:51;32.55;;;17.08;;
20056;SDS011;10189;49.546;7.906;2024-01-10T02:16:21;24.20;;;12.32;;
20056;SDS011;10189;49.546;7.906;2024-01-10T02:18:50;26.75;;;13.13;;
20056;SDS011;10189;49.546;7.906;2024-01-10T02:21:16;31.17;;;15.70;;
20056;SDS011;10189;49.546;7.906;2024-01-10T02:23:47;32.33;;;16.35;;
20056;SDS011;10189;49.546;7.906;2024-01-10T02:26:13;34.13;;;17.35;;
20056;SDS011;10189;49.546;7.906;2024-01-10T02:28:41;33.33;;;17.10;;
20056;SDS011;10189;49.546;7.906;2024-01-10T02:31:06;32.33;;;16.65;;
20056;SDS011;10189;49.546;7.906;2024-01-10T02:33:32;30.05;;;16.38;;
20056;SDS011;10189;49.546;7.906;2024-01-10T02:35:59;31.05;;;15.63;;
20056;SDS011;10189;49.546;7.906;2024-01-10T02:38:25;32.10;;;16.25;;
20056;SDS011;10189;49.546;7.906;2024-01-10T02:40:52;30.50;;;16.05;;
20056;SDS011;10189;49.546;7.906;2024-01-10T02:43:18;30.60;;;15.90;;
20056;SDS011;10189;49.546;7.906;2024-01-10T02:45:44;32.40;;;16.20;;
20056;SDS011;10189;49.546;7.906;2024-01-10T02:48:10;33.83;;;17.25;;
20056;SDS011;10189;49.546;7.906;2024-01-10T02:50:36;32.38;;;16.05;;
20056;SDS011;10189;49.546;7.906;2024-01-10T02:53:03;34.40;;;17.13;;
20056;SDS011;10189;49.546;7.906;2024-01-10T02:55:29;33.20;;;16.38;;
20056;SDS011;10189;49.546;7.906;2024-01-10T02:57:55;28.70;;;15.90;;
20056;SDS011;10189;49.546;7.906;2024-01-10T03:00:21;34.35;;;16.48;;
20056;SDS011;10189;49.546;7.906;2024-01-10T03:02:47;32.10;;;16.58;;
20056;SDS011;10189;49.546;7.906;2024-01-10T03:05:13;32.17;;;16.50;;
20056;SDS011;10189;49.546;7.906;2024-01-10T03:07:39;33.67;;;17.23;;
20056;SDS011;10189;49.546;7.906;2024-01-10T03:10:05;31.38;;;16.98;;
20056;SDS011;10189;49.546;7.906;2024-01-10T03:12:31;34.13;;;16.75;;
20056;SDS011;10189;49.546;7.906;2024-01-10T03:14:57;30.88;;;17.02;;
20056;SDS011;10189;49.546;7.906;2024-01-10T03:17:23;34.65;;;17.60;;
20056;SDS011;10189;49.546;7.906;2024-01-10T03:19:49;32.55;;;17.15;;
20056;SDS011;10189;49.546;7.906;2024-01-10T03:22:15;35.38;;;18.52;;
20056;SDS011;10189;49.546;7.906;2024-01-10T03:24:41;34.72;;;16.92;;
20056;SDS011;10189;49.546;7.906;2024-01-10T03:27:07;37.67;;;17.35;;
20056;SDS011;10189;49.546;7.906;2024-01-10T03:29:33;35.08;;;18.48;;
20056;SDS011;10189;49.546;7.906;2024-01-10T03:32:00;35.63;;;17.10;;
20056;SDS011;10189;49.546;7.906;2024-01-10T03:34:26;33.88;;;17.48;;
20056;SDS011;10189;49.546;7.906;2024-01-10T03:36:52;34.70;;;18.65;;
20056;SDS011;10189;49.546;7.906;2024-01-10T03:39:18;34.35;;;17.77;;
20056;SDS011;10189;49.546;7.906;2024-01-10T03:41:45;35.50;;;17.98;;
20056;SDS011;10189;49.546;7.906;2024-01-10T03:44:11;35.13;;;18.27;;
20056;SDS011;10189;49.546;7.906;2024-01-10T03:46:37;39.63;;;19.40;;
20056;SDS011;10189;49.546;7.906;2024-01-10T03:49:02;37.78;;;18.27;;
20056;SDS011;10189;49.546;7.906;2024-01-10T03:51:28;36.42;;;18.77;;
20056;SDS011;10189;49.546;7.906;2024-01-10T03:53:54;35.20;;;17.77;;
20056;SDS011;10189;49.546;7.906;2024-01-10T03:56:20;37.35;;;19.90;;
20056;SDS011;10189;49.546;7.906;2024-01-10T03:58:46;38.85;;;19.30;;
20056;SDS011;10189;49.546;7.906;2024-01-10T04:01:15;34.95;;;18.58;;
20056;SDS011;10189;49.546;7.906;2024-01-10T04:03:41;37.60;;;19.05;;
20056;SDS011;10189;49.546;7.906;2024-01-10T04:06:07;38.42;;;20.50;;
20056;SDS011;10189;49.546;7.906;2024-01-10T04:08:33;35.15;;;19.08;;
20056;SDS011;10189;49.546;7.906;2024-01-10T04:10:59;39.83;;;19.65;;
20056;SDS011;10189;49.546;7.906;2024-01-10T04:13:25;34.95;;;18.23;;
20056;SDS011;10189;49.546;7.906;2024-01-10T04:15:50;39.33;;;19.00;;
20056;SDS011;10189;49.546;7.906;2024-01-10T04:18:16;39.40;;;19.73;;
20056;SDS011;10189;49.546;7.906;2024-01-10T04:20:42;34.97;;;18.58;;
20056;SDS011;10189;49.546;7.906;2024-01-10T04:23:09;39.28;;;19.67;;
20056;SDS011;10189;49.546;7.906;2024-01-10T04:25:35;39.03;;;18.52;;
20056;SDS011;10189;49.546;7.906;2024-01-10T04:28:00;35.13;;;18.92;;
20056;SDS011;10189;49.546;7.906;2024-01-10T04:30:26;38.95;;;20.05;;
20056;SDS011;10189;49.546;7.906;2024-01-10T04:32:52;39.30;;;19.50;;
20056;SDS011;10189;49.546;7.906;2024-01-10T04:35:19;40.08;;;19.52;;
20056;SDS011;10189;49.546;7.906;2024-01-10T04:37:45;35.40;;;19.23;;
20056;SDS011;10189;49.546;7.906;2024-01-10T04:40:10;42.92;;;19.83;;
20056;SDS011;10189;49.546;7.906;2024-01-10T04:42:36;38.97;;;20.42;;
20056;SDS011;10189;49.546;7.906;2024-01-10T04:45:02;37.90;;;18.98;;
20056;SDS011;10189;49.546;7.906;2024-01-10T04:47:28;40.63;;;19.75;;
20056;SDS011;10189;49.546;7.906;2024-01-10T04:49:55;38.78;;;19.35;;
20056;SDS011;10189;49.546;7.906;2024-01-10T04:52:21;40.30;;;20.85;;
20056;SDS011;10189;49.546;7.906;2024-01-10T04:54:46;38.53;;;19.42;;
20056;SDS011;10189;49.546;7.906;2024-01-10T04:57:12;37.33;;;20.15;;
20056;SDS011;10189;49.546;7.906;2024-01-10T04:59:38;40.15;;;20.45;;
20056;SDS011;10189;49.546;7.906;2024-01-10T05:02:04;40.70;;;20.65;;
20056;SDS011;10189;49.546;7.906;2024-01-10T05:04:30;37.17;;;19.65;;
20056;SDS011;10189;49.546;7.906;2024-01-10T05:06:56;43.17;;;21.55;;
20056;SDS011;10189;49.546;7.906;2024-01-10T05:09:21;39.03;;;21.35;;
20056;SDS011;10189;49.546;7.906;2024-01-10T05:11:47;40.85;;;21.73;;
20056;SDS011;10189;49.546;7.906;2024-01-10T05:14:16;42.95;;;21.70;;
20056;SDS011;10189;49.546;7.906;2024-01-10T05:16:44;37.75;;;20.92;;
20056;SDS011;10189;49.546;7.906;2024-01-10T05:19:12;40.60;;;20.73;;
20056;SDS011;10189;49.546;7.906;2024-01-10T05:21:38;39.58;;;20.30;;
20056;SDS011;10189;49.546;7.906;2024-01-10T05:24:05;39.20;;;19.80;;
20056;SDS011;10189;49.546;7.906;2024-01-10T05:26:31;43.55;;;21.75;;
20056;SDS011;10189;49.546;7.906;2024-01-10T05:28:57;36.80;;;19.95;;
20056;SDS011;10189;49.546;7.906;2024-01-10T05:31:23;40.83;;;20.88;;
20056;SDS011;10189;49.546;7.906;2024-01-10T05:33:48;39.88;;;20.42;;
20056;SDS011;10189;49.546;7.906;2024-01-10T05:36:14;45.83;;;24.50;;
20056;SDS011;10189;49.546;7.906;2024-01-10T05:38:40;41.95;;;22.58;;
20056;SDS011;10189;49.546;7.906;2024-01-10T05:41:06;36.55;;;21.02;;
20056;SDS011;10189;49.546;7.906;2024-01-10T05:43:32;40.97;;;21.08;;
20056;SDS011;10189;49.546;7.906;2024-01-10T05:45:59;41.55;;;21.35;;
20056;SDS011;10189;49.546;7.906;2024-01-10T05:48:24;41.13;;;23.05;;
20056;SDS011;10189;49.546;7.906;2024-01-10T05:50:50;43.10;;;20.90;;
20056;SDS011;10189;49.546;7.906;2024-01-10T05:53:17;44.97;;;22.35;;
20056;SDS011;10189;49.546;7.906;2024-01-10T05:55:43;45.97;;;22.02;;
20056;SDS011;10189;49.546;7.906;2024-01-10T05:58:09;40.22;;;22.02;;
20056;SDS011;10189;49.546;7.906;2024-01-10T06:00:36;39.78;;;21.02;;
20056;SDS011;10189;49.546;7.906;2024-01-10T06:03:03;40.38;;;22.52;;
20056;SDS011;10189;49.546;7.906;2024-01-10T06:05:29;42.47;;;22.98;;
20056;SDS011;10189;49.546;7.906;2024-01-10T06:07:56;45.25;;;22.52;;
20056;SDS011;10189;49.546;7.906;2024-01-10T06:10:22;41.72;;;22.65;;
20056;SDS011;10189;49.546;7.906;2024-01-10T06:12:49;43.65;;;22.20;;
20056;SDS011;10189;49.546;7.906;2024-01-10T06:15:15;41.72;;;21.75;;
20056;SDS011;10189;49.546;7.906;2024-01-10T06:17:41;43.28;;;22.45;;
20056;SDS011;10189;49.546;7.906;2024-01-10T06:20:07;39.28;;;21.23;;
20056;SDS011;10189;49.546;7.906;2024-01-10T06:22:34;44.35;;;22.00;;
20056;SDS011;10189;49.546;7.906;2024-01-10T06:25:00;44.10;;;21.77;;
20056;SDS011;10189;49.546;7.906;2024-01-10T06:27:26;45.88;;;23.90;;
20056;SDS011;10189;49.546;7.906;2024-01-10T06:29:51;44.42;;;22.45;;
20056;SDS011;10189;49.546;7.906;2024-01-10T06:32:17;45.38;;;23.02;;
20056;SDS011;10189;49.546;7.906;2024-01-10T06:34:43;41.78;;;22.45;;
20056;SDS011;10189;49.546;7.906;2024-01-10T06:37:10;45.30;;;23.73;;
20056;SDS011;10189;49.546;7.906;2024-01-10T06:39:35;41.42;;;22.05;;
20056;SDS011;10189;49.546;7.906;2024-01-10T06:42:01;46.83;;;22.63;;
20056;SDS011;10189;49.546;7.906;2024-01-10T06:44:31;33.35;;;17.20;;
20056;SDS011;10189;49.546;7.906;2024-01-10T06:46:57;43.70;;;22.20;;
20056;SDS011;10189;49.546;7.906;2024-01-10T06:49:23;46.33;;;22.75;;
20056;SDS011;10189;49.546;7.906;2024-01-10T06:51:49;45.35;;;23.45;;
20056;SDS011;10189;49.546;7.906;2024-01-10T06:54:15;48.25;;;24.17;;
20056;SDS011;10189;49.546;7.906;2024-01-10T06:56:41;44.28;;;22.73;;
20056;SDS011;10189;49.546;7.906;2024-01-10T06:59:06;45.97;;;23.60;;
20056;SDS011;10189;49.546;7.906;2024-01-10T07:01:32;48.72;;;24.50;;
20056;SDS011;10189;49.546;7.906;2024-01-10T07:03:58;43.83;;;23.50;;
20056;SDS011;10189;49.546;7.906;2024-01-10T07:06:24;46.22;;;23.08;;
20056;SDS011;10189;49.546;7.906;2024-01-10T07:08:50;45.40;;;23.50;;
20056;SDS011;10189;49.546;7.906;2024-01-10T07:11:16;49.72;;;23.42;;
20056;SDS011;10189;49.546;7.906;2024-01-10T07:13:44;43.08;;;23.58;;
20056;SDS011;10189;49.546;7.906;2024-01-10T07:16:10;49.28;;;24.30;;
20056;SDS011;10189;49.546;7.906;2024-01-10T07:18:36;50.08;;;24.23;;
20056;SDS011;10189;49.546;7.906;2024-01-10T07:21:02;47.08;;;23.98;;
20056;SDS011;10189;49.546;7.906;2024-01-10T07:23:28;45.58;;;23.42;;
20056;SDS011;10189;49.546;7.906;2024-01-10T07:25:55;49.97;;;24.23;;
20056;SDS011;10189;49.546;7.906;2024-01-10T07:28:21;45.90;;;23.52;;
20056;SDS011;10189;49.546;7.906;2024-01-10T07:30:47;45.60;;;23.92;;
20056;SDS011;10189;49.546;7.906;2024-01-10T07:33:13;44.30;;;23.00;;
20056;SDS011;10189;49.546;7.906;2024-01-10T07:35:39;49.33;;;24.70;;
20056;SDS011;10189;49.546;7.906;2024-01-10T07:38:05;48.22;;;24.70;;
20056;SDS011;10189;49.546;7.906;2024-01-10T07:40:34;63.25;;;32.95;;
20056;SDS011;10189;49.546;7.906;2024-01-10T07:43:01;52.05;;;26.20;;
20056;SDS011;10189;49.546;7.906;2024-01-10T07:45:27;48.15;;;27.00;;
20056;SDS011;10189;49.546;7.906;2024-01-10T07:47:54;49.05;;;25.38;;
20056;SDS011;10189;49.546;7.906;2024-01-10T07:50:20;60.17;;;31.77;;
20056;SDS011;10189;49.546;7.906;2024-01-10T07:52:47;63.88;;;34.00;;
20056;SDS011;10189;49.546;7.906;2024-01-10T07:55:13;68.47;;;34.55;;
20056;SDS011;10189;49.546;7.906;2024-01-10T07:57:39;54.03;;;27.05;;
20056;SDS011;10189;49.546;7.906;2024-01-10T08:00:07;46.88;;;25.45;;
20056;SDS011;10189;49.546;7.906;2024-01-10T08:02:39;44.05;;;23.80;;
20056;SDS011;10189;49.546;7.906;2024-01-10T08:05:05;50.33;;;25.75;;
20056;SDS011;10189;49.546;7.906;2024-01-10T08:10:05;49.03;;;25.90;;
20056;SDS011;10189;49.546;7.906;2024-01-10T08:12:36;48.20;;;25.00;;
20056;SDS011;10189;49.546;7.906;2024-01-10T08:15:10;47.63;;;25.45;;
20056;SDS011;10189;49.546;7.906;2024-01-10T08:17:36;50.80;;;28.08;;
20056;SDS011;10189;49.546;7.906;2024-01-10T08:20:03;51.42;;;26.90;;
20056;SDS011;10189;49.546;7.906;2024-01-10T08:22:31;55.60;;;29.50;;
20056;SDS011;10189;49.546;7.906;2024-01-10T08:24:58;46.05;;;24.63;;
20056;SDS011;10189;49.546;7.906;2024-01-10T08:27:25;54.40;;;29.17;;
20056;SDS011;10189;49.546;7.906;2024-01-10T08:29:50;48.55;;;25.00;;
20056;SDS011;10189;49.546;7.906;2024-01-10T08:32:16;50.28;;;26.30;;
20056;SDS011;10189;49.546;7.906;2024-01-10T08:34:43;45.38;;;23.70;;
20056;SDS011;10189;49.546;7.906;2024-01-10T08:37:10;55.42;;;26.35;;
20056;SDS011;10189;49.546;7.906;2024-01-10T08:39:36;51.00;;;26.00;;
20056;SDS011;10189;49.546;7.906;2024-01-10T08:42:01;50.22;;;26.38;;
20056;SDS011;10189;49.546;7.906;2024-01-10T08:44:27;52.92;;;27.98;;
20056;SDS011;10189;49.546;7.906;2024-01-10T08:46:54;52.67;;;27.48;;
20056;SDS011;10189;49.546;7.906;2024-01-10T08:49:19;128.65;;;72.57;;
20056;SDS011;10189;49.546;7.906;2024-01-10T08:51:45;51.08;;;25.55;;
20056;SDS011;10189;49.546;7.906;2024-01-10T08:54:12;47.30;;;24.90;;
20056;SDS011;10189;49.546;7.906;2024-01-10T08:59:10;45.10;;;23.52;;
20056;SDS011;10189;49.546;7.906;2024-01-10T09:04:05;47.35;;;23.67;;
20056;SDS011;10189;49.546;7.906;2024-01-10T09:06:32;42.60;;;23.15;;
20056;SDS011;10189;49.546;7.906;2024-01-10T09:08:58;48.00;;;23.77;;
20056;SDS011;10189;49.546;7.906;2024-01-10T09:11:24;49.40;;;24.23;;
20056;SDS011;10189;49.546;7.906;2024-01-10T09:13:50;49.03;;;25.95;;
20056;SDS011;10189;49.546;7.906;2024-01-10T09:16:16;50.97;;;27.85;;
20056;SDS011;10189;49.546;7.906;2024-01-10T09:18:45;45.95;;;23.70;;
20056;SDS011;10189;49.546;7.906;2024-01-10T09:21:11;42.15;;;23.75;;
20056;SDS011;10189;49.546;7.906;2024-01-10T09:23:37;44.03;;;23.77;;
20056;SDS011;10189;49.546;7.906;2024-01-10T09:26:03;57.28;;;29.10;;
20056;SDS011;10189;49.546;7.906;2024-01-10T09:28:29;43.28;;;23.05;;
20056;SDS011;10189;49.546;7.906;2024-01-10T09:30:55;50.50;;;27.08;;
20056;SDS011;10189;49.546;7.906;2024-01-10T09:33:20;43.63;;;23.15;;
20056;SDS011;10189;49.546;7.906;2024-01-10T09:35:48;45.42;;;24.08;;
20056;SDS011;10189;49.546;7.906;2024-01-10T09:38:14;42.90;;;23.05;;
20056;SDS011;10189;49.546;7.906;2024-01-10T09:40:40;42.97;;;22.27;;
20056;SDS011;10189;49.546;7.906;2024-01-10T09:43:07;39.55;;;21.63;;
20056;SDS011;10189;49.546;7.906;2024-01-10T09:45:35;41.13;;;21.40;;
20056;SDS011;10189;49.546;7.906;2024-01-10T09:48:11;40.65;;;21.60;;
20056;SDS011;10189;49.546;7.906;2024-01-10T09:50:40;41.58;;;21.00;;
20056;SDS011;10189;49.546;7.906;2024-01-10T09:53:07;46.08;;;24.83;;
20056;SDS011;10189;49.546;7.906;2024-01-10T09:55:39;44.92;;;22.08;;
20056;SDS011;10189;49.546;7.906;2024-01-10T09:58:07;56.20;;;27.58;;
20056;SDS011;10189;49.546;7.906;2024-01-10T10:00:35;55.63;;;28.27;;
20056;SDS011;10189;49.546;7.906;2024-01-10T10:03:02;41.10;;;20.60;;
20056;SDS011;10189;49.546;7.906;2024-01-10T10:05:29;38.28;;;20.30;;
20056;SDS011;10189;49.546;7.906;2024-01-10T10:07:56;41.25;;;21.73;;
20056;SDS011;10189;49.546;7.906;2024-01-10T10:10:23;37.05;;;20.80;;
20056;SDS011;10189;49.546;7.906;2024-01-10T10:12:52;36.03;;;19.88;;
20056;SDS011;10189;49.546;7.906;2024-01-10T10:15:21;36.72;;;21.25;;
20056;SDS011;10189;49.546;7.906;2024-01-10T10:17:51;37.65;;;20.45;;
20056;SDS011;10189;49.546;7.906;2024-01-10T10:20:28;35.25;;;20.38;;
20056;SDS011;10189;49.546;7.906;2024-01-10T10:23:04;40.35;;;20.92;;
20056;SDS011;10189;49.546;7.906;2024-01-10T10:25:33;85.03;;;48.38;;
20056;SDS011;10189;49.546;7.906;2024-01-10T10:28:03;37.97;;;20.27;;
20056;SDS011;10189;49.546;7.906;2024-01-10T10:30:30;37.38;;;20.73;;
20056;SDS011;10189;49.546;7.906;2024-01-10T10:32:58;35.13;;;19.00;;
20056;SDS011;10189;49.546;7.906;2024-01-10T10:35:23;36.97;;;20.20;;
20056;SDS011;10189;49.546;7.906;2024-01-10T10:37:49;41.88;;;23.48;;
20056;SDS011;10189;49.546;7.906;2024-01-10T10:40:19;34.83;;;18.60;;
20056;SDS011;10189;49.546;7.906;2024-01-10T10:42:54;36.28;;;20.13;;
20056;SDS011;10189;49.546;7.906;2024-01-10T10:45:24;34.53;;;18.52;;
20056;SDS011;10189;49.546;7.906;2024-01-10T10:47:58;44.67;;;23.40;;
20056;SDS011;10189;49.546;7.906;2024-01-10T10:50:32;36.85;;;19.23;;
20056;SDS011;10189;49.546;7.906;2024-01-10T10:53:00;33.38;;;18.30;;
20056;SDS011;10189;49.546;7.906;2024-01-10T10:55:28;36.63;;;18.67;;
20056;SDS011;10189;49.546;7.906;2024-01-10T10:57:56;36.75;;;21.00;;
20056;SDS011;10189;49.546;7.906;2024-01-10T11:00:24;35.22;;;18.13;;
20056;SDS011;10189;49.546;7.906;2024-01-10T11:02:55;31.17;;;18.35;;
20056;SDS011;10189;49.546;7.906;2024-01-10T11:05:22;32.55;;;18.50;;
20056;SDS011;10189;49.546;7.906;2024-01-10T11:07:49;34.60;;;18.85;;
20056;SDS011;10189;49.546;7.906;2024-01-10T11:10:18;38.10;;;19.05;;
20056;SDS011;10189;49.546;7.906;2024-01-10T11:24:57;31.30;;;16.80;;
20056;SDS011;10189;49.546;7.906;2024-01-10T11:27:23;29.63;;;16.35;;
20056;SDS011;10189;49.546;7.906;2024-01-10T11:29:52;28.73;;;16.38;;
20056;SDS011;10189;49.546;7.906;2024-01-10T11:32:22;32.17;;;17.85;;
20056;SDS011;10189;49.546;7.906;2024-01-10T11:34:55;30.30;;;16.60;;
20056;SDS011;10189;49.546;7.906;2024-01-10T11:37:28;31.70;;;17.00;;
20056;SDS011;10189;49.546;7.906;2024-01-10T11:40:08;28.70;;;16.55;;
20056;SDS011;10189;49.546;7.906;2024-01-10T11:42:44;28.35;;;17.65;;
20056;SDS011;10189;49.546;7.906;2024-01-10T11:45:35;30.95;;;21.45;;
20056;SDS011;10189;49.546;7.906;2024-01-10T11:48:02;32.78;;;18.85;;
20056;SDS011;10189;49.546;7.906;2024-01-10T11:50:28;35.58;;;20.67;;
20056;SDS011;10189;49.546;7.906;2024-01-10T11:52:56;37.95;;;20.25;;
20056;SDS011;10189;49.546;7.906;2024-01-10T11:55:56;29.00;;;17.10;;
20056;SDS011;10189;49.546;7.906;2024-01-10T11:58:19;44.47;;;22.13;;
20056;SDS011;10189;49.546;7.906;2024-01-10T12:00:48;32.92;;;18.92;;
20056;SDS011;10189;49.546;7.906;2024-01-10T12:03:15;28.55;;;16.85;;
20056;SDS011;10189;49.546;7.906;2024-01-10T12:05:44;33.17;;;18.90;;
20056;SDS011;10189;49.546;7.906;2024-01-10T12:08:09;59.72;;;29.00;;
20056;SDS011;10189;49.546;7.906;2024-01-10T12:10:45;31.33;;;17.67;;
20056;SDS011;10189;49.546;7.906;2024-01-10T12:13:11;41.45;;;21.25;;
20056;SDS011;10189;49.546;7.906;2024-01-10T12:15:37;42.08;;;23.30;;
20056;SDS011;10189;49.546;7.906;2024-01-10T12:18:03;34.50;;;19.15;;
20056;SDS011;10189;49.546;7.906;2024-01-10T12:20:29;37.60;;;19.38;;
20056;SDS011;10189;49.546;7.906;2024-01-10T12:22:55;34.95;;;17.98;;
20056;SDS011;10189;49.546;7.906;2024-01-10T12:25:21;28.52;;;17.50;;
20056;SDS011;10189;49.546;7.906;2024-01-10T12:27:47;32.83;;;18.83;;
20056;SDS011;10189;49.546;7.906;2024-01-10T12:30:13;38.92;;;20.70;;
20056;SDS011;10189;49.546;7.906;2024-01-10T12:32:42;30.35;;;18.55;;
20056;SDS011;10189;49.546;7.906;2024-01-10T12:35:07;29.40;;;17.65;;
20056;SDS011;10189;49.546;7.906;2024-01-10T12:37:33;29.92;;;16.88;;
20056;SDS011;10189;49.546;7.906;2024-01-10T12:39:59;29.58;;;16.85;;
20056;SDS011;10189;49.546;7.906;2024-01-10T12:42:25;31.73;;;19.33;;
20056;SDS011;10189;49.546;7.906;2024-01-10T12:44:52;30.75;;;17.92;;
20056;SDS011;10189;49.546;7.906;2024-01-10T12:47:19;34.05;;;19.40;;
20056;SDS011;10189;49.546;7.906;2024-01-10T12:49:46;30.55;;;17.55;;
20056;SDS011;10189;49.546;7.906;2024-01-10T12:52:12;29.15;;;17.15;;
20056;SDS011;10189;49.546;7.906;2024-01-10T12:54:39;29.15;;;17.45;;
20056;SDS011;10189;49.546;7.906;2024-01-10T12:57:05;36.35;;;20.52;;
20056;SDS011;10189;49.546;7.906;2024-01-10T12:59:35;24.97;;;14.10;;
20056;SDS011;10189;49.546;7.906;2024-01-10T13:02:01;32.42;;;18.20;;
20056;SDS011;10189;49.546;7.906;2024-01-10T13:04:26;34.25;;;18.50;;
20056;SDS011;10189;49.546;7.906;2024-01-10T13:06:52;30.88;;;18.10;;
20056;SDS011;10189;49.546;7.906;2024-01-10T13:09:18;30.88;;;18.27;;
20056;SDS011;10189;49.546;7.906;2024-01-10T13:11:44;34.08;;;18.52;;
20056;SDS011;10189;49.546;7.906;2024-01-10T13:14:10;30.45;;;17.92;;
20056;SDS011;10189;49.546;7.906;2024-01-10T13:16:37;30.65;;;17.27;;
20056;SDS011;10189;49.546;7.906;2024-01-10T13:19:03;31.17;;;18.17;;
20056;SDS011;10189;49.546;7.906;2024-01-10T13:21:29;28.95;;;17.95;;
20056;SDS011;10189;49.546;7.906;2024-01-10T13:23:55;34.45;;;18.23;;
20056;SDS011;10189;49.546;7.906;2024-01-10T13:26:21;32.75;;;18.00;;
20056;SDS011;10189;49.546;7.906;2024-01-10T13:28:47;28.75;;;17.52;;
20056;SDS011;10189;49.546;7.906;2024-01-10T13:31:13;32.10;;;18.63;;
20056;SDS011;10189;49.546;7.906;2024-01-10T13:33:40;30.02;;;17.73;;
20056;SDS011;10189;49.546;7.906;2024-01-10T13:36:06;32.47;;;17.98;;
20056;SDS011;10189;49.546;7.906;2024-01-10T13:38:32;32.15;;;19.27;;
20056;SDS011;10189;49.546;7.906;2024-01-10T13:40:58;31.15;;;18.98;;
20056;SDS011;10189;49.546;7.906;2024-01-10T13:43:24;33.67;;;18.80;;
20056;SDS011;10189;49.546;7.906;2024-01-10T13:45:50;34.13;;;18.92;;
20056;SDS011;10189;49.546;7.906;2024-01-10T13:48:17;37.95;;;20.48;;
20056;SDS011;10189;49.546;7.906;2024-01-10T13:50:43;33.20;;;18.83;;
20056;SDS011;10189;49.546;7.906;2024-01-10T13:53:10;35.78;;;19.13;;
20056;SDS011;10189;49.546;7.906;2024-01-10T13:55:36;35.03;;;18.55;;
20056;SDS011;10189;49.546;7.906;2024-01-10T13:58:02;33.58;;;19.73;;
20056;SDS011;10189;49.546;7.906;2024-01-10T14:00:28;31.50;;;17.95;;
20056;SDS011;10189;49.546;7.906;2024-01-10T14:02:54;33.22;;;18.45;;
20056;SDS011;10189;49.546;7.906;2024-01-10T14:05:24;32.38;;;18.45;;
20056;SDS011;10189;49.546;7.906;2024-01-10T14:07:53;29.95;;;17.92;;
20056;SDS011;10189;49.546;7.906;2024-01-10T14:10:19;33.17;;;18.98;;
20056;SDS011;10189;49.546;7.906;2024-01-10T14:12:45;34.10;;;19.27;;
20056;SDS011;10189;49.546;7.906;2024-01-10T14:15:11;34.38;;;19.23;;
20056;SDS011;10189;49.546;7.906;2024-01-10T14:17:37;33.20;;;18.58;;
20056;SDS011;10189;49.546;7.906;2024-01-10T14:20:03;36.83;;;19.25;;
20056;SDS011;10189;49.546;7.906;2024-01-10T14:22:31;45.92;;;27.23;;
20056;SDS011;10189;49.546;7.906;2024-01-10T14:24:57;43.90;;;23.20;;
20056;SDS011;10189;49.546;7.906;2024-01-10T14:27:22;35.47;;;19.73;;
20056;SDS011;10189;49.546;7.906;2024-01-10T14:29:49;36.78;;;20.02;;
20056;SDS011;10189;49.546;7.906;2024-01-10T14:32:15;34.42;;;19.27;;
20056;SDS011;10189;49.546;7.906;2024-01-10T14:34:41;33.80;;;19.42;;
20056;SDS011;10189;49.546;7.906;2024-01-10T14:37:07;34.28;;;22.77;;
20056;SDS011;10189;49.546;7.906;2024-01-10T14:39:36;32.60;;;19.42;;